Time;durP1;ratioP1;P1;durP2;ratioP2;P2;SDS_P1;SDS_P2;PMS_P1;PMS_P2;Temp;Humidity;BMP_temperature;BMP_pressure;BME280_temperature;BME280_humidity;BME280_pressure;Samples;Min_cycle;Max_cycle;Signal;HPM_P1;HPM_P2
2022/04/19 00:00:17;;;;;;;;;;;10.40;99.90;;;;;;5179051;27;19923;-71
2022/04/19 00:02:42;;;;;;;;;;;10.40;99.90;;;;;;5160447;27;20274;-70
2022/04/19 00:05:09;;;;;;;;;;;10.40;99.90;;;;;;5179071;27;19926;-69
2022/04/19 00:07:35;;;;;;;;;;;10.40;99.90;;;;;;5178996;27;19967;-70
2022/04/19 00:10:01;;;;;;;;;;;9.30;99.90;;;;;;5142784;27;19923;-71
2022/04/19 00:12:26;;;;;;;;;;;10.50;99.90;;;;;;5178674;27;19955;-70
2022/04/19 00:14:52;;;;;;;;;;;10.30;99.90;;;;;;5159813;27;19930;-70
2022/04/19 00:17:19;;;;;;;;;;;10.20;99.90;;;;;;5177467;27;19926;-70
2022/04/19 00:19:44;;;;;;;;;;;10.20;99.90;;;;;;5178757;27;19930;-69
2022/04/19 00:22:10;;;;;;;;;;;11.00;99.90;;;;;;5178601;27;19923;-70
2022/04/19 00:24:36;;;;;;;;;;;10.10;99.90;;;;;;5178534;27;19923;-72
2022/04/19 00:27:01;;;;;;;;;;;10.50;99.90;;;;;;5178404;27;19923;-70
2022/04/19 00:29:27;;;;;;;;;;;10.00;99.90;;;;;;5178373;27;19923;-70
2022/04/19 00:31:52;;;;;;;;;;;10.20;99.90;;;;;;5178369;27;19923;-69
2022/04/19 00:34:18;;;;;;;;;;;10.00;99.90;;;;;;5159683;27;19970;-70
2022/04/19 00:36:44;;;;;;;;;;;10.10;99.90;;;;;;5178321;27;19930;-71
2022/04/19 00:39:10;;;;;;;;;;;10.00;99.90;;;;;;5159630;27;20330;-70
2022/04/19 00:41:35;;;;;;;;;;;9.90;99.90;;;;;;5178138;27;19923;-69
2022/04/19 00:44:01;;;;;;;;;;;10.10;99.90;;;;;;5177919;27;19923;-70
2022/04/19 00:46:26;;;;;;;;;;;9.90;99.90;;;;;;5177994;27;19941;-73
2022/04/19 00:48:56;;;;;;;;;;;9.90;99.90;;;;;;5177890;27;19934;-72
2022/04/19 00:51:23;;;;;;;;;;;9.80;99.90;;;;;;5177902;27;20013;-70
2022/04/19 00:53:49;;;;;;;;;;;9.80;99.90;;;;;;5177992;27;19967;-69
2022/04/19 00:56:15;;;;;;;;;;;9.80;99.90;;;;;;5177797;27;19966;-69
2022/04/19 00:58:40;;;;;;;;;;;9.80;99.90;;;;;;5159446;27;19966;-69
2022/04/19 01:01:06;;;;;;;;;;;9.80;99.90;;;;;;5177749;27;20378;-71
2022/04/19 01:03:31;;;;;;;;;;;9.70;99.90;;;;;;5177566;27;19929;-70
2022/04/19 01:05:58;;;;;;;;;;;8.80;99.90;;;;;;5177781;27;19945;-69
2022/04/19 01:08:24;;;;;;;;;;;9.60;99.90;;;;;;5177730;27;19937;-71
2022/04/19 01:10:49;;;;;;;;;;;9.30;99.90;;;;;;5159253;27;20316;-69
2022/04/19 01:13:18;;;;;;;;;;;9.60;99.90;;;;;;5177558;27;20049;-69
2022/04/19 01:15:45;;;;;;;;;;;10.10;99.90;;;;;;5158639;27;20373;-71
2022/04/19 01:18:11;;;;;;;;;;;9.50;99.90;;;;;;5177376;27;19967;-70
2022/04/19 01:20:38;;;;;;;;;;;9.50;99.90;;;;;;5177212;27;20423;-70
2022/04/19 01:23:04;;;;;;;;;;;9.50;99.90;;;;;;5158964;27;19922;-70
2022/04/19 01:25:29;;;;;;;;;;;9.50;99.90;;;;;;5177276;27;19922;-70
2022/04/19 01:27:55;;;;;;;;;;;9.90;99.90;;;;;;5176825;27;19923;-71
2022/04/19 01:30:21;;;;;;;;;;;9.40;99.90;;;;;;5177285;27;19923;-72
2022/04/19 01:32:46;;;;;;;;;;;9.30;99.90;;;;;;5158509;27;19936;-71
2022/04/19 01:35:16;;;;;;;;;;;9.30;99.90;;;;;;5176935;27;19929;-70
2022/04/19 01:37:46;;;;;;;;;;;9.20;99.90;;;;;;5177056;27;20017;-70
2022/04/19 01:40:19;;;;;;;;;;;9.20;99.90;;;;;;5158618;27;19923;-70
2022/04/19 01:42:48;;;;;;;;;;;9.20;99.90;;;;;;5141300;27;19987;-73
2022/04/19 01:45:15;;;;;;;;;;;9.20;99.90;;;;;;5158337;27;20067;-69
2022/04/19 01:47:40;;;;;;;;;;;9.20;99.90;;;;;;5176824;27;19923;-70
2022/04/19 01:50:09;;;;;;;;;;;9.20;99.90;;;;;;5176682;27;20391;-69
2022/04/19 01:52:35;;;;;;;;;;;9.20;99.90;;;;;;5176922;27;19961;-70
2022/04/19 01:55:01;;;;;;;;;;;9.10;99.90;;;;;;5140697;27;19922;-69
2022/04/19 01:57:26;;;;;;;;;;;9.10;99.90;;;;;;5176730;27;19923;-69
2022/04/19 01:59:53;;;;;;;;;;;9.00;99.90;;;;;;5158351;27;19922;-72
2022/04/19 02:02:18;;;;;;;;;;;9.10;99.90;;;;;;5176547;27;19923;-70
2022/04/19 02:04:44;;;;;;;;;;;9.00;99.90;;;;;;5158088;27;19923;-69
2022/04/19 02:07:09;;;;;;;;;;;9.20;99.90;;;;;;5177000;27;20000;-70
2022/04/19 02:09:35;;;;;;;;;;;8.90;99.90;;;;;;5158027;27;19922;-70
2022/04/19 02:12:01;;;;;;;;;;;8.80;99.90;;;;;;5176499;27;19923;-72
2022/04/19 02:14:26;;;;;;;;;;;8.80;99.90;;;;;;5158171;27;19923;-69
2022/04/19 02:16:53;;;;;;;;;;;8.70;99.90;;;;;;5157718;27;19923;-69
2022/04/19 02:19:18;;;;;;;;;;;8.60;99.90;;;;;;5157900;27;20373;-70
2022/04/19 02:21:45;;;;;;;;;;;8.60;99.90;;;;;;5176283;27;19923;-72
2022/04/19 02:24:11;;;;;;;;;;;8.50;99.90;;;;;;5176501;27;20006;-69
2022/04/19 02:26:36;;;;;;;;;;;8.50;99.90;;;;;;5157739;27;19968;-69
2022/04/19 02:29:02;;;;;;;;;;;7.20;99.90;;;;;;5157734;27;19922;-69
2022/04/19 02:31:28;;;;;;;;;;;8.70;99.90;;;;;;5176318;27;19923;-72
2022/04/19 02:33:54;;;;;;;;;;;8.20;99.90;;;;;;5176334;27;19922;-69
2022/04/19 02:36:21;;;;;;;;;;;9.20;99.90;;;;;;5176479;27;20330;-70
2022/04/19 02:38:46;;;;;;;;;;;8.40;99.90;;;;;;5176175;27;19930;-71
2022/04/19 02:41:12;;;;;;;;;;;8.40;99.90;;;;;;5178749;27;19923;-70
2022/04/19 02:43:38;;;;;;;;;;;8.40;99.90;;;;;;5162110;27;19970;-69
2022/04/19 02:46:04;;;;;;;;;;;8.80;99.90;;;;;;5180422;27;19923;-70
2022/04/19 02:48:30;;;;;;;;;;;8.50;99.90;;;;;;5180312;27;20342;-69
2022/04/19 02:50:56;;;;;;;;;;;8.30;99.90;;;;;;5180716;27;19957;-68
2022/04/19 02:53:22;;;;;;;;;;;8.30;99.90;;;;;;5180370;27;19922;-70
2022/04/19 02:55:48;;;;;;;;;;;8.30;99.90;;;;;;5180327;27;19974;-69
2022/04/19 02:58:14;;;;;;;;;;;8.30;99.90;;;;;;5180185;27;19923;-69
2022/04/19 03:00:39;;;;;;;;;;;8.50;99.90;;;;;;5180136;27;19949;-71
2022/04/19 03:03:05;;;;;;;;;;;8.40;99.90;;;;;;5161549;27;20001;-69
2022/04/19 03:05:33;;;;;;;;;;;8.20;99.90;;;;;;5161619;27;19975;-71
2022/04/19 03:07:59;;;;;;;;;;;8.20;99.90;;;;;;5180114;27;20010;-70
2022/04/19 03:10:24;;;;;;;;;;;8.40;99.90;;;;;;5161497;27;19965;-70
2022/04/19 03:12:53;;;;;;;;;;;8.10;99.90;;;;;;5161558;27;19927;-70
2022/04/19 03:15:20;;;;;;;;;;;8.70;99.90;;;;;;5179741;27;19922;-69
2022/04/19 03:17:45;;;;;;;;;;;8.00;99.90;;;;;;5143925;27;19931;-70
2022/04/19 03:20:11;;;;;;;;;;;7.90;99.90;;;;;;5179599;27;19936;-69
2022/04/19 03:28:05;;;;;;;;;;;7.90;99.90;;;;;;5179494;27;20021;-68
2022/04/19 03:30:30;;;;;;;;;;;7.80;99.90;;;;;;5179440;27;19969;-71
2022/04/19 03:32:56;;;;;;;;;;;7.80;99.90;;;;;;5179433;27;19930;-69
2022/04/19 03:35:21;;;;;;;;;;;7.90;99.90;;;;;;5161068;27;19923;-69
2022/04/19 03:37:47;;;;;;;;;;;7.70;99.90;;;;;;5179487;27;19929;-70
2022/04/19 03:40:14;;;;;;;;;;;7.80;99.90;;;;;;5179409;27;19923;-71
2022/04/19 03:42:41;;;;;;;;;;;7.70;99.90;;;;;;5179266;27;19934;-70
2022/04/19 03:45:08;;;;;;;;;;;7.70;99.90;;;;;;5179400;27;20289;-71
2022/04/19 03:47:36;;;;;;;;;;;7.70;99.90;;;;;;5160776;27;20424;-70
2022/04/19 03:50:02;;;;;;;;;;;7.60;99.90;;;;;;5179336;27;20352;-71
2022/04/19 03:52:28;;;;;;;;;;;7.60;99.90;;;;;;5160594;27;19973;-69
2022/04/19 03:54:53;;;;;;;;;;;7.60;99.90;;;;;;5160546;27;20286;-70
2022/04/19 03:57:19;;;;;;;;;;;8.60;99.90;;;;;;5178870;27;19927;-69
2022/04/19 03:59:44;;;;;;;;;;;7.70;99.90;;;;;;5179047;27;19927;-69
2022/04/19 04:02:10;;;;;;;;;;;8.60;99.90;;;;;;5160528;27;19930;-72
2022/04/19 04:04:36;;;;;;;;;;;7.50;99.90;;;;;;5179073;27;20301;-70
2022/04/19 04:07:05;;;;;;;;;;;7.50;99.90;;;;;;5178905;27;19922;-69
2022/04/19 04:09:35;;;;;;;;;;;7.50;99.90;;;;;;5178955;27;19972;-71
2022/04/19 04:12:11;;;;;;;;;;;8.10;99.90;;;;;;5178701;27;20309;-71
2022/04/19 04:14:37;;;;;;;;;;;7.50;99.90;;;;;;5160250;27;19922;-69
2022/04/19 04:17:03;;;;;;;;;;;8.10;99.90;;;;;;5178471;27;20055;-69
2022/04/19 04:19:29;;;;;;;;;;;6.40;99.90;;;;;;5160184;27;20458;-69
2022/04/19 04:21:54;;;;;;;;;;;7.40;99.90;;;;;;5178534;27;19930;-69
2022/04/19 04:24:20;;;;;;;;;;;7.50;99.90;;;;;;5178373;27;20301;-69
2022/04/19 04:26:46;;;;;;;;;;;7.30;99.90;;;;;;5160190;27;19938;-70
2022/04/19 04:29:11;;;;;;;;;;;7.50;99.90;;;;;;5178328;27;20041;-69
2022/04/19 04:31:38;;;;;;;;;;;8.40;99.90;;;;;;5159943;27;20440;-69
2022/04/19 04:34:04;;;;;;;;;;;7.30;99.90;;;;;;5178408;27;19931;-72
2022/04/19 04:36:29;;;;;;;;;;;7.30;99.90;;;;;;5178329;27;19926;-68
2022/04/19 04:38:55;;;;;;;;;;;7.30;99.90;;;;;;5159975;27;20445;-67
2022/04/19 04:41:21;;;;;;;;;;;8.10;99.90;;;;;;5178163;27;20274;-69
2022/04/19 04:43:46;;;;;;;;;;;7.30;99.90;;;;;;5178118;27;19945;-70
2022/04/19 04:51:40;;;;;;;;;;;7.30;99.90;;;;;;5178006;27;19977;-71
2022/04/19 04:54:05;;;;;;;;;;;7.30;99.90;;;;;;5178002;27;19970;-71
2022/04/19 04:56:31;;;;;;;;;;;7.30;99.90;;;;;;5177804;27;19930;-68
2022/04/19 04:58:56;;;;;;;;;;;7.40;99.90;;;;;;5177567;27;20006;-69
2022/04/19 05:01:22;;;;;;;;;;;7.90;99.90;;;;;;5159652;27;19926;-69
2022/04/19 05:03:48;;;;;;;;;;;7.30;99.90;;;;;;5158862;27;20485;-70
2022/04/19 05:06:13;;;;;;;;;;;7.30;99.90;;;;;;5177737;27;19923;-69
2022/04/19 05:08:39;;;;;;;;;;;8.00;99.90;;;;;;5159366;27;19950;-69
2022/04/19 05:11:04;;;;;;;;;;;7.40;99.90;;;;;;5177637;27;19922;-71
2022/04/19 05:13:30;;;;;;;;;;;7.30;99.90;;;;;;5158890;27;20445;-69
2022/04/19 05:15:58;;;;;;;;;;;7.80;99.90;;;;;;5158765;27;19970;-69
2022/04/19 05:18:24;;;;;;;;;;;7.50;99.90;;;;;;5177540;27;19974;-69
2022/04/19 05:20:50;;;;;;;;;;;7.30;99.90;;;;;;5177295;27;19941;-68
2022/04/19 05:23:15;;;;;;;;;;;7.30;99.90;;;;;;5177368;27;19922;-71
2022/04/19 05:25:41;;;;;;;;;;;7.30;99.90;;;;;;5177336;27;19923;-72
2022/04/19 05:28:06;;;;;;;;;;;7.40;99.90;;;;;;5176983;27;20282;-69
2022/04/19 05:30:32;;;;;;;;;;;7.40;99.90;;;;;;5158468;27;19923;-69
2022/04/19 05:32:58;;;;;;;;;;;7.40;99.90;;;;;;5158664;27;19923;-70
2022/04/19 05:35:24;;;;;;;;;;;7.50;99.90;;;;;;5158750;27;19930;-70
2022/04/19 05:37:49;;;;;;;;;;;8.10;99.90;;;;;;5177110;27;20338;-69
2022/04/19 05:40:15;;;;;;;;;;;7.60;99.90;;;;;;5176998;27;20314;-68
2022/04/19 05:42:40;;;;;;;;;;;7.90;99.90;;;;;;5176894;27;19929;-73
2022/04/19 05:45:06;;;;;;;;;;;7.90;99.90;;;;;;5176826;27;20381;-69
2022/04/19 05:47:33;;;;;;;;;;;7.70;99.90;;;;;;5176998;27;19945;-69
2022/04/19 05:49:58;;;;;;;;;;;7.80;99.90;;;;;;5177017;27;20289;-72
2022/04/19 05:52:24;;;;;;;;;;;8.60;99.90;;;;;;5176858;27;19943;-73
2022/04/19 05:54:49;;;;;;;;;;;8.00;99.90;;;;;;5176790;27;20392;-68
2022/04/19 05:57:15;;;;;;;;;;;7.90;99.90;;;;;;5176630;27;19946;-68
2022/04/19 05:59:40;;;;;;;;;;;8.00;99.90;;;;;;5157982;27;19922;-70
2022/04/19 06:04:53;;;;;;;;;;;8.10;99.90;;;;;;5176615;27;20366;-70
2022/04/19 06:07:22;;;;;;;;;;;8.30;99.90;;;;;;5158112;27;19979;-72
2022/04/19 06:09:48;;;;;;;;;;;8.20;99.90;;;;;;5158167;27;19922;-71
2022/04/19 06:12:13;;;;;;;;;;;9.40;99.90;;;;;;5140383;27;19971;-69
2022/04/19 06:14:39;;;;;;;;;;;8.40;99.90;;;;;;5175821;27;20397;-69
2022/04/19 06:17:05;;;;;;;;;;;9.10;99.90;;;;;;5176309;27;19922;-69
2022/04/19 06:19:31;;;;;;;;;;;8.50;99.90;;;;;;5176468;27;20323;-71
2022/04/19 06:21:59;;;;;;;;;;;8.60;99.90;;;;;;5176569;27;19923;-69
2022/04/19 06:24:25;;;;;;;;;;;8.70;99.90;;;;;;5176452;27;20009;-70
2022/04/19 06:26:51;;;;;;;;;;;8.70;99.90;;;;;;5157957;27;20368;-69
2022/04/19 06:29:16;;;;;;;;;;;8.70;99.90;;;;;;5174922;27;19974;-69
2022/04/19 06:31:43;;;;;;;;;;;8.80;99.90;;;;;;5176353;27;19965;-69
2022/04/19 06:34:09;;;;;;;;;;;8.80;99.90;;;;;;5175877;27;20284;-69
2022/04/19 06:36:35;;;;;;;;;;;8.90;99.90;;;;;;5157486;27;20420;-71
2022/04/19 06:39:00;;;;;;;;;;;9.00;99.90;;;;;;5176165;27;19970;-69
2022/04/19 06:41:26;;;;;;;;;;;9.00;99.90;;;;;;5176187;27;19923;-70
2022/04/19 06:43:52;;;;;;;;;;;9.10;99.90;;;;;;5175782;27;19982;-69
2022/04/19 06:46:18;;;;;;;;;;;9.20;99.90;;;;;;5157686;27;19923;-70
2022/04/19 06:48:44;;;;;;;;;;;9.50;99.90;;;;;;5176231;27;19931;-70
2022/04/19 06:51:09;;;;;;;;;;;9.40;99.90;;;;;;5176056;27;20258;-70
2022/04/19 06:53:38;;;;;;;;;;;9.40;99.90;;;;;;5176039;27;19945;-72
2022/04/19 06:56:04;;;;;;;;;;;10.40;99.90;;;;;;5175951;27;19923;-69
2022/04/19 06:58:32;;;;;;;;;;;9.60;99.90;;;;;;5175671;27;20427;-68
2022/04/19 07:00:58;;;;;;;;;;;9.70;99.90;;;;;;5176071;27;20285;-68
2022/04/19 07:03:24;;;;;;;;;;;9.80;99.90;;;;;;5175988;27;19922;-69
2022/04/19 07:05:50;;;;;;;;;;;9.10;99.90;;;;;;5157650;27;19927;-69
2022/04/19 07:08:15;;;;;;;;;;;10.10;99.90;;;;;;5157450;27;19983;-69
2022/04/19 07:10:41;;;;;;;;;;;10.10;99.90;;;;;;5157258;27;20328;-70
2022/04/19 07:13:07;;;;;;;;;;;10.20;99.90;;;;;;5175679;27;19937;-69
2022/04/19 07:15:32;;;;;;;;;;;10.30;99.90;;;;;;5175630;27;19923;-69
2022/04/19 07:17:58;;;;;;;;;;;10.80;99.90;;;;;;5157359;27;20392;-69
2022/04/19 07:28:35;;;;;;;;;;;10.80;99.90;;;;;;5179525;27;19929;-69
2022/04/19 07:31:04;;;;;;;;;;;10.90;99.90;;;;;;5179822;27;19923;-69
2022/04/19 07:33:30;;;;;;;;;;;10.90;99.90;;;;;;5179176;27;20437;-71
2022/04/19 07:35:56;;;;;;;;;;;11.40;99.90;;;;;;5179266;27;19923;-69
2022/04/19 07:38:22;;;;;;;;;;;11.10;99.90;;;;;;5179335;27;19922;-68
2022/04/19 07:40:48;;;;;;;;;;;11.20;99.90;;;;;;5179279;27;19927;-68
2022/04/19 07:43:14;;;;;;;;;;;11.20;99.90;;;;;;5179250;27;20474;-68
2022/04/19 07:45:40;;;;;;;;;;;11.30;99.90;;;;;;5161028;27;20369;-70
2022/04/19 07:48:06;;;;;;;;;;;11.40;99.90;;;;;;5179364;27;20015;-72
2022/04/19 07:50:34;;;;;;;;;;;11.40;99.90;;;;;;5160885;27;19926;-71
2022/04/19 07:53:00;;;;;;;;;;;11.50;99.90;;;;;;5160364;27;19933;-72
2022/04/19 07:55:25;;;;;;;;;;;11.60;99.90;;;;;;5160506;27;19930;-68
2022/04/19 07:57:51;;;;;;;;;;;11.70;99.90;;;;;;5178970;27;19927;-71
2022/04/19 08:00:17;;;;;;;;;;;11.70;99.90;;;;;;5179002;27;19980;-69
2022/04/19 08:02:42;;;;;;;;;;;11.80;99.90;;;;;;5179024;27;19930;-70
2022/04/19 08:05:08;;;;;;;;;;;11.90;99.90;;;;;;5178923;27;20046;-70
2022/04/19 08:07:35;;;;;;;;;;;11.90;99.90;;;;;;5178696;27;19923;-67
2022/04/19 08:10:01;;;;;;;;;;;12.00;99.90;;;;;;5160308;27;19974;-69
2022/04/19 08:12:27;;;;;;;;;;;12.10;99.90;;;;;;5160451;27;19962;-69
2022/04/19 08:14:52;;;;;;;;;;;12.10;99.90;;;;;;5178647;27;19922;-69
2022/04/19 08:17:18;;;;;;;;;;;12.20;99.90;;;;;;5178729;27;19967;-73
2022/04/19 08:19:43;;;;;;;;;;;12.20;99.90;;;;;;5178611;27;19923;-70
2022/04/19 08:22:09;;;;;;;;;;;12.40;99.90;;;;;;5178689;27;19937;-71
2022/04/19 08:24:35;;;;;;;;;;;12.40;95.40;;;;;;5160049;27;19922;-72
2022/04/19 08:27:00;;;;;;;;;;;12.50;97.60;;;;;;5178328;27;20381;-70
2022/04/19 08:29:26;;;;;;;;;;;12.60;97.10;;;;;;5178354;27;19929;-71
2022/04/19 08:31:51;;;;;;;;;;;12.60;95.20;;;;;;5142297;27;19923;-73
2022/04/19 08:34:17;;;;;;;;;;;12.70;96.20;;;;;;5142250;27;19929;-71
2022/04/19 08:36:43;;;;;;;;;;;12.80;94.20;;;;;;5159069;27;19930;-71
2022/04/19 08:39:09;;;;;;;;;;;12.70;92.50;;;;;;5158456;27;19923;-73
2022/04/19 08:41:37;;;;;;;;;;;12.90;90.40;;;;;;5159470;27;19923;-70
2022/04/19 08:44:04;;;;;;;;;;;13.00;89.70;;;;;;5178071;27;19980;-72
2022/04/19 08:46:31;;;;;;;;;;;13.00;84.00;;;;;;5178081;27;19926;-72
2022/04/19 08:48:59;;;;;;;;;;;13.10;90.40;;;;;;5178024;27;20059;-71
2022/04/19 08:51:26;;;;;;;;;;;13.20;88.40;;;;;;5177966;27;19929;-70
2022/04/19 08:59:28;;;;;;;;;;;13.40;78.00;;;;;;5052451;28;19924;-69
2022/04/19 09:01:53;;;;;;;;;;;13.40;75.30;;;;;;5052775;28;19925;-70
2022/04/19 09:04:21;;;;;;;;;;;13.50;76.10;;;;;;5052698;28;19955;-72
2022/04/19 09:06:54;;;;;;;;;;;13.50;79.70;;;;;;5052563;28;19925;-73
2022/04/19 09:09:21;;;;;;;;;;;13.60;79.90;;;;;;5052955;28;20012;-71
2022/04/19 09:11:47;;;;;;;;;;;13.70;76.80;;;;;;5052471;28;19929;-71
2022/04/19 09:14:13;;;;;;;;;;;13.70;78.50;;;;;;5052410;28;20142;-70
2022/04/19 09:16:39;;;;;;;;;;;13.80;79.90;;;;;;5052399;28;19924;-71
2022/04/19 09:19:07;;;;;;;;;;;13.90;77.90;;;;;;5052436;28;19931;-70
2022/04/19 09:21:42;;;;;;;;;;;13.90;80.70;;;;;;5051658;28;20280;-71
2022/04/19 09:24:18;;;;;;;;;;;14.10;78.30;;;;;;5051861;28;20412;-72
2022/04/19 09:26:48;;;;;;;;;;;14.20;76.60;;;;;;5052413;28;19925;-71
2022/04/19 09:29:21;;;;;;;;;;;14.30;75.50;;;;;;5051867;28;19925;-73
2022/04/19 09:31:49;;;;;;;;;;;14.40;78.10;;;;;;5051959;28;20010;-70
2022/04/19 09:34:22;;;;;;;;;;;14.40;71.30;;;;;;5051892;28;20062;-70
2022/04/19 09:36:53;;;;;;;;;;;14.50;71.20;;;;;;5122243;27;19923;-72
2022/04/19 09:39:25;;;;;;;;;;;14.60;70.90;;;;;;5176888;27;19929;-71
2022/04/19 09:41:59;;;;;;;;;;;14.60;70.40;;;;;;5176891;27;20293;-70
2022/04/19 09:44:24;;;;;;;;;;;13.70;66.60;;;;;;5157935;27;19974;-74
2022/04/19 09:47:04;;;;;;;;;;;14.80;69.60;;;;;;5158278;27;20006;-70
2022/04/19 09:49:40;;;;;;;;;;;14.80;68.60;;;;;;5176530;27;20353;-70
2022/04/19 09:52:05;;;;;;;;;;;14.90;67.10;;;;;;5176777;27;20364;-70
2022/04/19 09:54:31;;;;;;;;;;;15.00;66.50;;;;;;5176549;27;19923;-72
2022/04/19 09:57:04;;;;;;;;;;;15.10;67.70;;;;;;5176341;27;20366;-70
2022/04/19 09:59:30;;;;;;;;;;;15.20;67.40;;;;;;5140953;27;19922;-71
2022/04/19 10:10:09;;;;;;;;;;;15.50;63.30;;;;;;5176387;27;19924;-72
2022/04/19 10:12:35;;;;;;;;;;;15.50;62.10;;;;;;5176285;27;19945;-70
2022/04/19 10:15:07;;;;;;;;;;;15.60;63.40;;;;;;5157922;27;19930;-71
2022/04/19 10:17:33;;;;;;;;;;;15.60;62.90;;;;;;5176133;27;19970;-71
2022/04/19 10:20:00;;;;;;;;;;;15.80;61.50;;;;;;5176182;27;20014;-72
2022/04/19 10:22:27;;;;;;;;;;;15.90;64.70;;;;;;5176247;27;19929;-70
2022/04/19 10:24:52;;;;;;;;;;;15.90;60.60;;;;;;5157983;27;19922;-71
2022/04/19 10:27:18;;;;;;;;;;;15.90;59.80;;;;;;5176196;27;19968;-72
2022/04/19 10:29:45;;;;;;;;;;;15.90;59.20;;;;;;5176072;27;19970;-72
2022/04/19 10:32:11;;;;;;;;;;;15.90;58.80;;;;;;5157336;27;20384;-71
2022/04/19 10:34:39;;;;;;;;;;;16.00;59.50;;;;;;5175992;27;19929;-71
2022/04/19 10:37:11;;;;;;;;;;;16.10;61.20;;;;;;5175786;27;20017;-71
2022/04/19 10:39:43;;;;;;;;;;;16.10;60.20;;;;;;5176118;27;19923;-73
2022/04/19 10:42:25;;;;;;;;;;;16.30;59.20;;;;;;5157243;27;19945;-71
2022/04/19 10:44:52;;;;;;;;;;;16.30;61.50;;;;;;5157440;27;19923;-70
2022/04/19 10:47:19;;;;;;;;;;;16.40;61.30;;;;;;5175730;27;20021;-72
2022/04/19 10:49:48;;;;;;;;;;;16.50;61.60;;;;;;5175723;27;19922;-72
2022/04/19 10:52:33;;;;;;;;;;;16.60;60.00;;;;;;5175918;27;19923;-72
2022/04/19 10:55:02;;;;;;;;;;;16.60;57.20;;;;;;5175876;27;20018;-72
2022/04/19 10:58:06;;;;;;;;;;;16.50;56.60;;;;;;5175610;27;19930;-70
2022/04/19 11:00:34;;;;;;;;;;;16.50;56.90;;;;;;5157552;27;19975;-71
2022/04/19 11:03:06;;;;;;;;;;;16.60;56.90;;;;;;5179713;27;19934;-72
2022/04/19 11:05:36;;;;;;;;;;;16.60;56.30;;;;;;5161658;27;19923;-71
2022/04/19 11:08:24;;;;;;;;;;;16.70;55.80;;;;;;5179852;27;19926;-70
2022/04/19 11:10:56;;;;;;;;;;;16.60;54.70;;;;;;5074778;28;20286;-73
2022/04/19 11:13:29;;;;;;;;;;;16.50;56.40;;;;;;5074565;28;19979;-72
2022/04/19 11:15:57;;;;;;;;;;;16.50;55.70;;;;;;5074512;28;19986;-70
2022/04/19 11:18:24;;;;;;;;;;;16.60;56.80;;;;;;5074553;28;20024;-70
2022/04/19 11:20:50;;;;;;;;;;;16.60;54.60;;;;;;5074176;28;20311;-70
2022/04/19 11:23:17;;;;;;;;;;;16.50;54.60;;;;;;5041283;28;19925;-69
2022/04/19 11:25:45;;;;;;;;;;;16.50;56.00;;;;;;5074433;28;19925;-71
2022/04/19 11:28:11;;;;;;;;;;;16.60;56.90;;;;;;5055806;28;20371;-73
2022/04/19 11:30:41;;;;;;;;;;;16.70;56.20;;;;;;5074300;28;19931;-73
2022/04/19 11:33:08;;;;;;;;;;;16.70;56.70;;;;;;5057381;28;20379;-71
2022/04/19 11:35:33;;;;;;;;;;;16.80;57.00;;;;;;5057595;28;19928;-69
2022/04/19 11:38:08;;;;;;;;;;;16.80;54.80;;;;;;5057791;28;20065;-73
2022/04/19 11:49:04;;;;;;;;;;;16.70;54.20;;;;;;5158217;27;19945;-72
2022/04/19 11:51:30;;;;;;;;;;;16.70;56.20;;;;;;5158225;27;20508;-71
2022/04/19 11:53:55;;;;;;;;;;;16.70;55.80;;;;;;5158127;27;19930;-71
2022/04/19 11:56:21;;;;;;;;;;;16.80;55.60;;;;;;5157905;27;19923;-72
2022/04/19 11:58:52;;;;;;;;;;;16.70;55.50;;;;;;5157655;27;20014;-72
2022/04/19 12:01:18;;;;;;;;;;;16.80;55.90;;;;;;5158033;27;20426;-71
2022/04/19 12:03:43;;;;;;;;;;;16.80;53.80;;;;;;5139852;27;20297;-72
2022/04/19 12:06:14;;;;;;;;;;;16.80;55.10;;;;;;5157908;27;19923;-71
2022/04/19 12:08:41;;;;;;;;;;;16.80;54.40;;;;;;5122480;27;19927;-71
2022/04/19 12:11:13;;;;;;;;;;;16.90;56.00;;;;;;5157707;27;19970;-71
2022/04/19 12:13:46;;;;;;;;;;;16.20;54.40;;;;;;5139205;27;19923;-70
2022/04/19 12:16:31;;;;;;;;;;;16.80;54.20;;;;;;5157812;27;19923;-71
2022/04/19 12:19:00;;;;;;;;;;;16.80;54.80;;;;;;5157598;27;20291;-71
2022/04/19 12:21:43;;;;;;;;;;;16.80;53.80;;;;;;5157353;27;19946;-74
2022/04/19 12:24:19;;;;;;;;;;;16.80;54.20;;;;;;5139255;27;19930;-73
2022/04/19 12:26:48;;;;;;;;;;;16.70;54.00;;;;;;5157801;27;20484;-70
2022/04/19 12:29:14;;;;;;;;;;;16.80;54.30;;;;;;5157134;27;19923;-73
2022/04/19 12:31:50;;;;;;;;;;;16.80;54.00;;;;;;5139342;27;20263;-70
2022/04/19 12:34:16;;;;;;;;;;;16.90;54.10;;;;;;5157188;27;19923;-73
2022/04/19 12:36:42;;;;;;;;;;;16.80;53.80;;;;;;5138768;27;19923;-73
2022/04/19 12:39:08;;;;;;;;;;;16.70;53.90;;;;;;5138958;27;19934;-72
2022/04/19 12:41:38;;;;;;;;;;;16.70;54.30;;;;;;5157246;27;19934;-71
2022/04/19 12:44:05;;;;;;;;;;;16.70;54.50;;;;;;5157157;27;19930;-72
2022/04/19 12:46:31;;;;;;;;;;;16.70;54.00;;;;;;5157125;27;19927;-73
2022/04/19 12:48:57;;;;;;;;;;;16.70;54.30;;;;;;5156998;27;19923;-71
2022/04/19 12:51:24;;;;;;;;;;;16.70;53.80;;;;;;5157051;27;19922;-73
2022/04/19 12:54:02;;;;;;;;;;;16.60;53.90;;;;;;5156033;27;20366;-71
2022/04/19 12:56:28;;;;;;;;;;;16.70;54.10;;;;;;5157015;27;19930;-71
2022/04/19 12:58:53;;;;;;;;;;;16.60;54.00;;;;;;5138584;27;20009;-69
2022/04/19 13:01:19;;;;;;;;;;;16.70;54.30;;;;;;5156777;27;19968;-71
2022/04/19 13:03:45;;;;;;;;;;;16.70;53.70;;;;;;5155519;27;20009;-73
2022/04/19 13:14:23;;;;;;;;;;;16.70;55.00;;;;;;5156513;27;19930;-73
2022/04/19 13:16:48;;;;;;;;;;;16.70;55.00;;;;;;5138315;27;19923;-70
2022/04/19 13:19:14;;;;;;;;;;;16.80;56.10;;;;;;5156665;27;20009;-73
2022/04/19 13:21:39;;;;;;;;;;;16.80;54.40;;;;;;5156673;27;20269;-73
2022/04/19 13:24:06;;;;;;;;;;;16.80;54.30;;;;;;5155979;27;19969;-70
2022/04/19 13:26:31;;;;;;;;;;;16.80;54.00;;;;;;5156578;27;19985;-71
2022/04/19 13:28:57;;;;;;;;;;;16.70;54.70;;;;;;5156082;27;19923;-71
2022/04/19 13:31:23;;;;;;;;;;;16.70;54.40;;;;;;5156128;27;19923;-72
2022/04/19 13:33:50;;;;;;;;;;;16.80;54.50;;;;;;5137105;27;19927;-71
2022/04/19 13:36:16;;;;;;;;;;;16.80;54.40;;;;;;5156204;27;19929;-71
2022/04/19 13:38:43;;;;;;;;;;;16.80;55.10;;;;;;5156188;27;20013;-70
2022/04/19 13:41:10;;;;;;;;;;;16.80;54.60;;;;;;5156032;27;20377;-72
2022/04/19 13:43:37;;;;;;;;;;;16.80;54.80;;;;;;5156042;27;19923;-69
2022/04/19 13:46:03;;;;;;;;;;;16.80;54.80;;;;;;5137242;27;19958;-73
2022/04/19 13:48:29;;;;;;;;;;;16.90;54.80;;;;;;5156112;27;19930;-71
2022/04/19 13:50:55;;;;;;;;;;;16.90;54.80;;;;;;5155932;27;19923;-73
2022/04/19 13:53:20;;;;;;;;;;;17.00;55.80;;;;;;5155988;27;19927;-70
2022/04/19 13:55:46;;;;;;;;;;;17.00;54.50;;;;;;5155792;27;19929;-73
2022/04/19 13:58:11;;;;;;;;;;;17.10;54.40;;;;;;5155572;27;19923;-72
2022/04/19 14:00:37;;;;;;;;;;;17.10;54.30;;;;;;5137377;27;19927;-73
2022/04/19 14:03:03;;;;;;;;;;;17.10;53.10;;;;;;5137769;27;19923;-70
2022/04/19 14:05:30;;;;;;;;;;;17.10;52.90;;;;;;5155732;27;20015;-72
2022/04/19 14:07:56;;;;;;;;;;;16.90;52.00;;;;;;5154557;27;19932;-72
2022/04/19 14:10:22;;;;;;;;;;;17.10;51.90;;;;;;5137491;27;19923;-71
2022/04/19 14:12:47;;;;;;;;;;;17.00;52.20;;;;;;5155563;27;20325;-71
2022/04/19 14:15:13;;;;;;;;;;;17.10;52.40;;;;;;5155295;27;19923;-71
2022/04/19 14:17:38;;;;;;;;;;;17.10;52.50;;;;;;5155285;27;19924;-72
2022/04/19 14:20:05;;;;;;;;;;;17.10;52.60;;;;;;5155524;27;19938;-69
2022/04/19 14:22:30;;;;;;;;;;;17.20;52.10;;;;;;5155600;27;19927;-70
2022/04/19 14:24:56;;;;;;;;;;;17.20;51.60;;;;;;5155520;27;20263;-73
2022/04/19 14:27:21;;;;;;;;;;;17.20;52.60;;;;;;5155429;27;19929;-71
2022/04/19 14:35:16;;;;;;;;;;;17.50;52.20;;;;;;5155122;27;20301;-71
2022/04/19 14:37:41;;;;;;;;;;;17.50;52.50;;;;;;5154674;27;19923;-71
2022/04/19 14:40:07;;;;;;;;;;;17.60;53.00;;;;;;5155323;27;20374;-71
2022/04/19 14:42:32;;;;;;;;;;;17.70;53.20;;;;;;5155170;27;19931;-71
2022/04/19 14:44:58;;;;;;;;;;;17.60;52.20;;;;;;5136905;27;20035;-72
2022/04/19 14:47:23;;;;;;;;;;;17.70;52.20;;;;;;5155438;27;20393;-71
2022/04/19 14:49:49;;;;;;;;;;;17.60;53.10;;;;;;5155482;27;19945;-71
2022/04/19 14:52:16;;;;;;;;;;;17.60;53.20;;;;;;5136947;27;19927;-73
2022/04/19 14:54:42;;;;;;;;;;;17.40;53.40;;;;;;5155271;27;19930;-72
2022/04/19 14:57:07;;;;;;;;;;;17.50;52.50;;;;;;5154978;27;19957;-71
2022/04/19 14:59:33;;;;;;;;;;;17.50;53.50;;;;;;5154523;27;19923;-72
2022/04/19 15:01:59;;;;;;;;;;;17.60;52.40;;;;;;5155198;27;19923;-72
2022/04/19 15:04:25;;;;;;;;;;;17.50;52.50;;;;;;5137063;27;19966;-71
2022/04/19 15:06:51;;;;;;;;;;;17.50;52.40;;;;;;5155191;27;19927;-71
2022/04/19 15:09:17;;;;;;;;;;;16.70;52.40;;;;;;5155237;27;19930;-73
2022/04/19 15:11:42;;;;;;;;;;;17.80;53.00;;;;;;5136777;27;19923;-71
2022/04/19 15:14:24;;;;;;;;;;;17.80;52.30;;;;;;5135373;27;19927;-71
2022/04/19 15:16:50;;;;;;;;;;;17.80;52.20;;;;;;5155943;27;20366;-71
2022/04/19 15:19:16;;;;;;;;;;;17.70;51.70;;;;;;5154863;27;20014;-73